Huvudsida
METAR-TAF:

METAR-TAF

Flygplatser :

Jyväskylä, Finland

Jyväskylä flygplats

latitud: 62-24N, longitud: 025-41E, höjd: 141 m

Aktuellt väderrapport

Denna rapport gjordes för 17 minuter sedan, klockan 03:20 UTC
Vind 3 kt från ost
Temperatur -10°C
Fuktighet 85%
Tryck 1000 hPa
Sikt 10 km eller mer
Mulet på en höjd av 5700 ft
lätt snö

METAR: EFJY 190320Z AUTO 09003KT 9999 -SN OVC057 M10/M12 Q1000

Tid: 05:37 (03:37 UTC)

Väderprognos

Denna rapport gjordes för 1 timme och 0 minuter sedan, klockan 02:37 UTC
Prognos gäller från 19 kl. 03 UTC till 20 kl. 03 UTC
Vind 2 kt varierande vindriktning
Sikt: 8000 m
Spridda moln på en höjd av 800 ft
Brutna moln på en höjd av 3000 ft
lätt snö
Temporärt
från 19 kl. 03 UTC till 19 kl. 12 UTC
Sikt: 4000 m
Brutna moln på en höjd av 800 ft
Blir
från 19 kl. 15 UTC till 19 kl. 17 UTC
Sikt: 4000 m
Brutna moln på en höjd av 300 ft
fuktdis

TAF: EFJY 190237Z 1903/2003 VRB02KT 8000 -SN SCT008 BKN030 TEMPO 1903/1912 4000 BKN008 BECMG 1915/1917 4000 BR BKN003

Aktuella väderrapporter och prognoser från 4000 flygplatser (METAR- och TAF-rapporter).

De tillgängliga stationerna syns som gula och röda prickar på kartan.

För musen över prickarna för att se namnen på stationerna.

Klicka sedan för att få väderrapporter och prognoser.

För att ändra kartan: Klicka på de gröna knapparna med ett svart kors på för att zooma in; den gröna knappen med ett streck på för att zooma ut; eller på de gröna pilarna för angränsande kartor.


METAR-TAF: